sensor_id;sensor_type;location;lat;lon;timestamp;P1;durP1;ratioP1;P2;durP2;ratioP2
3068;SDS011;1545;51.728;8.796;2023-05-07T00:01:31;39.23;;;24.17;;
3068;SDS011;1545;51.728;8.796;2023-05-07T00:03:57;41.40;;;24.77;;
3068;SDS011;1545;51.728;8.796;2023-05-07T00:06:22;39.60;;;24.67;;
3068;SDS011;1545;51.728;8.796;2023-05-07T00:08:48;47.67;;;26.40;;
3068;SDS011;1545;51.728;8.796;2023-05-07T00:11:14;39.97;;;24.97;;
3068;SDS011;1545;51.728;8.796;2023-05-07T00:13:39;41.13;;;25.73;;
3068;SDS011;1545;51.728;8.796;2023-05-07T00:16:05;49.23;;;27.03;;
3068;SDS011;1545;51.728;8.796;2023-05-07T00:18:30;42.73;;;26.53;;
3068;SDS011;1545;51.728;8.796;2023-05-07T00:20:56;47.20;;;27.77;;
3068;SDS011;1545;51.728;8.796;2023-05-07T00:23:22;42.43;;;27.57;;
3068;SDS011;1545;51.728;8.796;2023-05-07T00:25:48;45.10;;;28.53;;
3068;SDS011;1545;51.728;8.796;2023-05-07T00:28:13;44.70;;;27.73;;
3068;SDS011;1545;51.728;8.796;2023-05-07T00:30:39;43.03;;;28.30;;
3068;SDS011;1545;51.728;8.796;2023-05-07T00:33:04;45.77;;;28.60;;
3068;SDS011;1545;51.728;8.796;2023-05-07T00:35:30;60.60;;;29.57;;
3068;SDS011;1545;51.728;8.796;2023-05-07T00:37:55;49.17;;;29.03;;
3068;SDS011;1545;51.728;8.796;2023-05-07T00:40:21;51.80;;;29.60;;
3068;SDS011;1545;51.728;8.796;2023-05-07T00:42:46;53.40;;;30.87;;
3068;SDS011;1545;51.728;8.796;2023-05-07T00:45:14;52.47;;;29.67;;
3068;SDS011;1545;51.728;8.796;2023-05-07T00:47:40;51.57;;;30.87;;
3068;SDS011;1545;51.728;8.796;2023-05-07T00:50:06;51.83;;;30.80;;
3068;SDS011;1545;51.728;8.796;2023-05-07T00:52:33;51.77;;;31.20;;
3068;SDS011;1545;51.728;8.796;2023-05-07T00:54:59;49.77;;;31.63;;
3068;SDS011;1545;51.728;8.796;2023-05-07T00:57:29;58.50;;;31.30;;
3068;SDS011;1545;51.728;8.796;2023-05-07T01:00:07;54.80;;;31.33;;
3068;SDS011;1545;51.728;8.796;2023-05-07T01:02:34;50.23;;;31.63;;
3068;SDS011;1545;51.728;8.796;2023-05-07T01:05:00;57.17;;;31.77;;
3068;SDS011;1545;51.728;8.796;2023-05-07T01:07:28;55.67;;;31.87;;
3068;SDS011;1545;51.728;8.796;2023-05-07T01:09:54;56.37;;;32.83;;
3068;SDS011;1545;51.728;8.796;2023-05-07T01:12:20;52.13;;;32.23;;
3068;SDS011;1545;51.728;8.796;2023-05-07T01:14:46;51.70;;;31.70;;
3068;SDS011;1545;51.728;8.796;2023-05-07T01:17:13;51.30;;;31.37;;
3068;SDS011;1545;51.728;8.796;2023-05-07T01:19:39;56.50;;;32.67;;
3068;SDS011;1545;51.728;8.796;2023-05-07T01:22:09;62.37;;;32.73;;
3068;SDS011;1545;51.728;8.796;2023-05-07T01:24:36;54.00;;;32.53;;
3068;SDS011;1545;51.728;8.796;2023-05-07T01:27:03;54.00;;;33.10;;
3068;SDS011;1545;51.728;8.796;2023-05-07T01:29:28;55.20;;;32.93;;
3068;SDS011;1545;51.728;8.796;2023-05-07T01:31:54;63.10;;;33.33;;
3068;SDS011;1545;51.728;8.796;2023-05-07T01:34:25;55.43;;;33.93;;
3068;SDS011;1545;51.728;8.796;2023-05-07T01:36:53;56.07;;;33.03;;
3068;SDS011;1545;51.728;8.796;2023-05-07T01:39:20;54.30;;;33.47;;
3068;SDS011;1545;51.728;8.796;2023-05-07T01:41:48;60.97;;;34.03;;
3068;SDS011;1545;51.728;8.796;2023-05-07T01:44:14;56.43;;;33.90;;
3068;SDS011;1545;51.728;8.796;2023-05-07T01:46:41;57.83;;;33.93;;
3068;SDS011;1545;51.728;8.796;2023-05-07T01:49:07;60.37;;;33.43;;
3068;SDS011;1545;51.728;8.796;2023-05-07T01:51:33;54.20;;;32.77;;
3068;SDS011;1545;51.728;8.796;2023-05-07T01:53:59;55.83;;;33.57;;
3068;SDS011;1545;51.728;8.796;2023-05-07T01:56:25;57.37;;;33.73;;
3068;SDS011;1545;51.728;8.796;2023-05-07T01:58:50;56.37;;;33.27;;
3068;SDS011;1545;51.728;8.796;2023-05-07T02:01:16;58.70;;;33.17;;
3068;SDS011;1545;51.728;8.796;2023-05-07T02:03:42;53.27;;;33.33;;
3068;SDS011;1545;51.728;8.796;2023-05-07T02:06:08;52.33;;;32.37;;
3068;SDS011;1545;51.728;8.796;2023-05-07T02:08:34;57.97;;;34.23;;
3068;SDS011;1545;51.728;8.796;2023-05-07T02:10:59;58.23;;;33.80;;
3068;SDS011;1545;51.728;8.796;2023-05-07T02:13:26;54.53;;;33.67;;
3068;SDS011;1545;51.728;8.796;2023-05-07T02:15:54;58.60;;;34.73;;
3068;SDS011;1545;51.728;8.796;2023-05-07T02:18:19;54.70;;;33.53;;
3068;SDS011;1545;51.728;8.796;2023-05-07T02:20:45;54.10;;;33.07;;
3068;SDS011;1545;51.728;8.796;2023-05-07T02:23:10;52.87;;;33.77;;
3068;SDS011;1545;51.728;8.796;2023-05-07T02:25:36;62.60;;;32.97;;
3068;SDS011;1545;51.728;8.796;2023-05-07T02:28:01;54.80;;;33.60;;
3068;SDS011;1545;51.728;8.796;2023-05-07T02:30:27;64.20;;;34.57;;
3068;SDS011;1545;51.728;8.796;2023-05-07T02:32:53;56.60;;;33.50;;
3068;SDS011;1545;51.728;8.796;2023-05-07T02:35:18;65.77;;;35.13;;
3068;SDS011;1545;51.728;8.796;2023-05-07T02:37:44;58.03;;;34.40;;
3068;SDS011;1545;51.728;8.796;2023-05-07T02:40:09;61.57;;;34.70;;
3068;SDS011;1545;51.728;8.796;2023-05-07T02:42:36;60.73;;;36.00;;
3068;SDS011;1545;51.728;8.796;2023-05-07T02:45:01;60.93;;;35.13;;
3068;SDS011;1545;51.728;8.796;2023-05-07T02:47:27;60.77;;;36.33;;
3068;SDS011;1545;51.728;8.796;2023-05-07T02:49:53;68.17;;;36.20;;
3068;SDS011;1545;51.728;8.796;2023-05-07T02:52:20;61.93;;;36.40;;
3068;SDS011;1545;51.728;8.796;2023-05-07T02:54:45;66.60;;;37.13;;
3068;SDS011;1545;51.728;8.796;2023-05-07T02:57:11;59.33;;;35.77;;
3068;SDS011;1545;51.728;8.796;2023-05-07T02:59:36;66.13;;;38.33;;
3068;SDS011;1545;51.728;8.796;2023-05-07T03:02:02;66.53;;;36.50;;
3068;SDS011;1545;51.728;8.796;2023-05-07T03:04:27;62.23;;;36.50;;
3068;SDS011;1545;51.728;8.796;2023-05-07T03:06:53;59.43;;;36.93;;
3068;SDS011;1545;51.728;8.796;2023-05-07T03:09:18;60.83;;;35.40;;
3068;SDS011;1545;51.728;8.796;2023-05-07T03:11:44;63.87;;;36.50;;
3068;SDS011;1545;51.728;8.796;2023-05-07T03:14:09;64.30;;;38.20;;
3068;SDS011;1545;51.728;8.796;2023-05-07T03:16:35;63.47;;;37.27;;
3068;SDS011;1545;51.728;8.796;2023-05-07T03:19:01;69.37;;;37.40;;
3068;SDS011;1545;51.728;8.796;2023-05-07T03:21:26;69.67;;;39.50;;
3068;SDS011;1545;51.728;8.796;2023-05-07T03:23:52;72.50;;;38.83;;
3068;SDS011;1545;51.728;8.796;2023-05-07T03:26:18;74.67;;;39.90;;
3068;SDS011;1545;51.728;8.796;2023-05-07T03:28:43;73.57;;;39.60;;
3068;SDS011;1545;51.728;8.796;2023-05-07T03:31:09;73.97;;;39.13;;
3068;SDS011;1545;51.728;8.796;2023-05-07T03:33:34;75.40;;;39.30;;
3068;SDS011;1545;51.728;8.796;2023-05-07T03:36:00;67.83;;;38.87;;
3068;SDS011;1545;51.728;8.796;2023-05-07T03:38:26;70.00;;;40.20;;
3068;SDS011;1545;51.728;8.796;2023-05-07T03:40:51;74.53;;;41.27;;
3068;SDS011;1545;51.728;8.796;2023-05-07T03:43:17;81.93;;;41.03;;
3068;SDS011;1545;51.728;8.796;2023-05-07T03:45:42;81.70;;;43.07;;
3068;SDS011;1545;51.728;8.796;2023-05-07T03:48:08;80.27;;;42.43;;
3068;SDS011;1545;51.728;8.796;2023-05-07T03:50:33;78.77;;;41.23;;
3068;SDS011;1545;51.728;8.796;2023-05-07T03:52:59;83.50;;;41.43;;
3068;SDS011;1545;51.728;8.796;2023-05-07T03:55:24;82.60;;;40.83;;
3068;SDS011;1545;51.728;8.796;2023-05-07T03:57:50;80.60;;;41.53;;
3068;SDS011;1545;51.728;8.796;2023-05-07T04:00:16;76.97;;;41.47;;
3068;SDS011;1545;51.728;8.796;2023-05-07T04:02:41;80.87;;;41.20;;
3068;SDS011;1545;51.728;8.796;2023-05-07T04:05:07;79.27;;;40.87;;
3068;SDS011;1545;51.728;8.796;2023-05-07T04:07:33;91.87;;;42.57;;
3068;SDS011;1545;51.728;8.796;2023-05-07T04:09:58;83.20;;;42.23;;
3068;SDS011;1545;51.728;8.796;2023-05-07T04:12:24;77.37;;;39.90;;
3068;SDS011;1545;51.728;8.796;2023-05-07T04:14:49;80.37;;;40.60;;
3068;SDS011;1545;51.728;8.796;2023-05-07T04:17:15;77.67;;;41.20;;
3068;SDS011;1545;51.728;8.796;2023-05-07T04:19:40;76.73;;;40.33;;
3068;SDS011;1545;51.728;8.796;2023-05-07T04:22:10;84.67;;;41.53;;
3068;SDS011;1545;51.728;8.796;2023-05-07T04:24:36;77.90;;;40.37;;
3068;SDS011;1545;51.728;8.796;2023-05-07T04:27:01;77.47;;;40.90;;
3068;SDS011;1545;51.728;8.796;2023-05-07T04:29:27;78.50;;;40.53;;
3068;SDS011;1545;51.728;8.796;2023-05-07T04:31:53;79.40;;;41.07;;
3068;SDS011;1545;51.728;8.796;2023-05-07T04:34:20;89.57;;;41.10;;
3068;SDS011;1545;51.728;8.796;2023-05-07T04:36:46;87.70;;;41.23;;
3068;SDS011;1545;51.728;8.796;2023-05-07T04:39:13;78.80;;;40.40;;
3068;SDS011;1545;51.728;8.796;2023-05-07T04:41:38;83.13;;;41.27;;
3068;SDS011;1545;51.728;8.796;2023-05-07T04:44:04;79.30;;;40.80;;
3068;SDS011;1545;51.728;8.796;2023-05-07T04:46:30;72.20;;;39.23;;
3068;SDS011;1545;51.728;8.796;2023-05-07T04:48:55;71.93;;;40.07;;
3068;SDS011;1545;51.728;8.796;2023-05-07T04:51:21;73.27;;;39.13;;
3068;SDS011;1545;51.728;8.796;2023-05-07T04:53:47;68.70;;;38.43;;
3068;SDS011;1545;51.728;8.796;2023-05-07T04:56:12;69.13;;;37.67;;
3068;SDS011;1545;51.728;8.796;2023-05-07T04:58:38;73.87;;;39.23;;
3068;SDS011;1545;51.728;8.796;2023-05-07T05:01:03;87.33;;;38.33;;
3068;SDS011;1545;51.728;8.796;2023-05-07T05:03:29;76.00;;;39.73;;
3068;SDS011;1545;51.728;8.796;2023-05-07T05:05:55;71.53;;;37.87;;
3068;SDS011;1545;51.728;8.796;2023-05-07T05:08:21;75.17;;;37.30;;
3068;SDS011;1545;51.728;8.796;2023-05-07T05:10:47;68.00;;;37.67;;
3068;SDS011;1545;51.728;8.796;2023-05-07T05:13:14;74.43;;;38.00;;
3068;SDS011;1545;51.728;8.796;2023-05-07T05:15:40;62.30;;;36.27;;
3068;SDS011;1545;51.728;8.796;2023-05-07T05:18:05;64.73;;;37.07;;
3068;SDS011;1545;51.728;8.796;2023-05-07T05:20:31;68.93;;;36.97;;
3068;SDS011;1545;51.728;8.796;2023-05-07T05:22:56;62.83;;;35.90;;
3068;SDS011;1545;51.728;8.796;2023-05-07T05:25:22;61.50;;;34.90;;
3068;SDS011;1545;51.728;8.796;2023-05-07T05:27:47;55.97;;;33.60;;
3068;SDS011;1545;51.728;8.796;2023-05-07T05:30:13;62.53;;;34.27;;
3068;SDS011;1545;51.728;8.796;2023-05-07T05:32:39;66.10;;;33.70;;
3068;SDS011;1545;51.728;8.796;2023-05-07T05:35:04;57.23;;;33.73;;
3068;SDS011;1545;51.728;8.796;2023-05-07T05:37:30;61.97;;;33.93;;
3068;SDS011;1545;51.728;8.796;2023-05-07T05:39:56;63.73;;;33.67;;
3068;SDS011;1545;51.728;8.796;2023-05-07T05:42:22;64.23;;;35.43;;
3068;SDS011;1545;51.728;8.796;2023-05-07T05:44:47;59.80;;;34.20;;
3068;SDS011;1545;51.728;8.796;2023-05-07T05:47:13;61.00;;;33.57;;
3068;SDS011;1545;51.728;8.796;2023-05-07T05:49:39;56.23;;;32.10;;
3068;SDS011;1545;51.728;8.796;2023-05-07T05:52:04;58.27;;;32.93;;
3068;SDS011;1545;51.728;8.796;2023-05-07T05:54:30;58.20;;;33.67;;
3068;SDS011;1545;51.728;8.796;2023-05-07T05:56:55;57.53;;;32.23;;
3068;SDS011;1545;51.728;8.796;2023-05-07T05:59:21;54.40;;;31.50;;
3068;SDS011;1545;51.728;8.796;2023-05-07T06:01:47;54.43;;;31.17;;
3068;SDS011;1545;51.728;8.796;2023-05-07T06:04:12;54.87;;;32.03;;
3068;SDS011;1545;51.728;8.796;2023-05-07T06:06:38;51.00;;;29.07;;
3068;SDS011;1545;51.728;8.796;2023-05-07T06:09:03;55.60;;;30.87;;
3068;SDS011;1545;51.728;8.796;2023-05-07T06:11:29;52.67;;;29.93;;
3068;SDS011;1545;51.728;8.796;2023-05-07T06:13:56;52.37;;;30.30;;
3068;SDS011;1545;51.728;8.796;2023-05-07T06:16:21;49.27;;;29.27;;
3068;SDS011;1545;51.728;8.796;2023-05-07T06:18:47;49.67;;;29.77;;
3068;SDS011;1545;51.728;8.796;2023-05-07T06:21:13;46.67;;;28.67;;
3068;SDS011;1545;51.728;8.796;2023-05-07T06:23:39;48.13;;;27.77;;
3068;SDS011;1545;51.728;8.796;2023-05-07T06:26:05;52.67;;;29.17;;
3068;SDS011;1545;51.728;8.796;2023-05-07T06:28:31;45.90;;;28.27;;
3068;SDS011;1545;51.728;8.796;2023-05-07T06:31:16;48.10;;;27.77;;
3068;SDS011;1545;51.728;8.796;2023-05-07T06:33:47;47.20;;;27.77;;
3068;SDS011;1545;51.728;8.796;2023-05-07T06:36:13;40.13;;;25.97;;
3068;SDS011;1545;51.728;8.796;2023-05-07T06:38:38;42.90;;;26.60;;
3068;SDS011;1545;51.728;8.796;2023-05-07T06:41:05;43.13;;;26.27;;
3068;SDS011;1545;51.728;8.796;2023-05-07T06:43:31;48.60;;;26.13;;
3068;SDS011;1545;51.728;8.796;2023-05-07T06:45:56;45.57;;;25.37;;
3068;SDS011;1545;51.728;8.796;2023-05-07T06:48:22;41.60;;;25.17;;
3068;SDS011;1545;51.728;8.796;2023-05-07T06:50:47;42.23;;;26.30;;
3068;SDS011;1545;51.728;8.796;2023-05-07T06:53:12;48.37;;;26.17;;
3068;SDS011;1545;51.728;8.796;2023-05-07T06:55:38;40.87;;;25.20;;
3068;SDS011;1545;51.728;8.796;2023-05-07T06:58:04;41.90;;;25.60;;
3068;SDS011;1545;51.728;8.796;2023-05-07T07:00:30;39.80;;;25.07;;
3068;SDS011;1545;51.728;8.796;2023-05-07T07:02:56;38.73;;;24.27;;
3068;SDS011;1545;51.728;8.796;2023-05-07T07:05:21;43.30;;;24.80;;
3068;SDS011;1545;51.728;8.796;2023-05-07T07:07:47;38.03;;;24.27;;
3068;SDS011;1545;51.728;8.796;2023-05-07T07:10:20;43.07;;;25.30;;
3068;SDS011;1545;51.728;8.796;2023-05-07T07:12:46;38.60;;;24.10;;
3068;SDS011;1545;51.728;8.796;2023-05-07T07:15:13;37.83;;;23.77;;
3068;SDS011;1545;51.728;8.796;2023-05-07T07:17:39;40.23;;;23.57;;
3068;SDS011;1545;51.728;8.796;2023-05-07T07:20:05;34.50;;;22.47;;
3068;SDS011;1545;51.728;8.796;2023-05-07T07:22:31;34.57;;;21.47;;
3068;SDS011;1545;51.728;8.796;2023-05-07T07:24:56;35.07;;;21.60;;
3068;SDS011;1545;51.728;8.796;2023-05-07T07:27:22;36.17;;;22.43;;
3068;SDS011;1545;51.728;8.796;2023-05-07T07:29:47;40.03;;;21.53;;
3068;SDS011;1545;51.728;8.796;2023-05-07T07:32:13;34.93;;;21.37;;
3068;SDS011;1545;51.728;8.796;2023-05-07T07:34:39;31.43;;;20.80;;
3068;SDS011;1545;51.728;8.796;2023-05-07T07:37:05;30.27;;;19.60;;
3068;SDS011;1545;51.728;8.796;2023-05-07T07:39:34;30.80;;;19.53;;
3068;SDS011;1545;51.728;8.796;2023-05-07T07:42:00;28.93;;;18.50;;
3068;SDS011;1545;51.728;8.796;2023-05-07T07:44:25;26.57;;;17.43;;
3068;SDS011;1545;51.728;8.796;2023-05-07T07:46:53;27.67;;;17.83;;
3068;SDS011;1545;51.728;8.796;2023-05-07T07:49:18;35.30;;;17.40;;
3068;SDS011;1545;51.728;8.796;2023-05-07T07:51:44;28.60;;;18.03;;
3068;SDS011;1545;51.728;8.796;2023-05-07T07:54:10;34.57;;;19.10;;
3068;SDS011;1545;51.728;8.796;2023-05-07T07:56:35;30.83;;;19.03;;
3068;SDS011;1545;51.728;8.796;2023-05-07T07:59:01;25.73;;;16.97;;
3068;SDS011;1545;51.728;8.796;2023-05-07T08:01:29;26.23;;;17.87;;
3068;SDS011;1545;51.728;8.796;2023-05-07T08:03:54;26.50;;;16.90;;
3068;SDS011;1545;51.728;8.796;2023-05-07T08:06:20;28.03;;;17.87;;
3068;SDS011;1545;51.728;8.796;2023-05-07T08:08:46;29.13;;;18.03;;
3068;SDS011;1545;51.728;8.796;2023-05-07T08:11:11;27.17;;;17.07;;
3068;SDS011;1545;51.728;8.796;2023-05-07T08:13:37;27.20;;;17.73;;
3068;SDS011;1545;51.728;8.796;2023-05-07T08:16:03;26.03;;;17.57;;
3068;SDS011;1545;51.728;8.796;2023-05-07T08:18:29;27.33;;;17.70;;
3068;SDS011;1545;51.728;8.796;2023-05-07T08:20:55;28.77;;;18.53;;
3068;SDS011;1545;51.728;8.796;2023-05-07T08:23:21;30.53;;;18.07;;
3068;SDS011;1545;51.728;8.796;2023-05-07T08:25:47;28.27;;;17.90;;
3068;SDS011;1545;51.728;8.796;2023-05-07T08:28:14;29.40;;;17.83;;
3068;SDS011;1545;51.728;8.796;2023-05-07T08:30:40;30.00;;;17.77;;
3068;SDS011;1545;51.728;8.796;2023-05-07T08:33:05;27.10;;;17.80;;
3068;SDS011;1545;51.728;8.796;2023-05-07T08:35:31;30.47;;;18.07;;
3068;SDS011;1545;51.728;8.796;2023-05-07T08:37:56;25.73;;;17.97;;
3068;SDS011;1545;51.728;8.796;2023-05-07T08:40:23;29.47;;;16.67;;
3068;SDS011;1545;51.728;8.796;2023-05-07T08:42:51;28.10;;;17.50;;
3068;SDS011;1545;51.728;8.796;2023-05-07T08:45:18;30.53;;;18.43;;
3068;SDS011;1545;51.728;8.796;2023-05-07T08:47:47;27.03;;;17.60;;
3068;SDS011;1545;51.728;8.796;2023-05-07T08:50:16;28.33;;;17.47;;
3068;SDS011;1545;51.728;8.796;2023-05-07T08:52:42;28.33;;;18.37;;
3068;SDS011;1545;51.728;8.796;2023-05-07T08:55:08;29.10;;;18.47;;
3068;SDS011;1545;51.728;8.796;2023-05-07T08:57:34;25.70;;;17.03;;
3068;SDS011;1545;51.728;8.796;2023-05-07T09:00:00;27.63;;;17.57;;
3068;SDS011;1545;51.728;8.796;2023-05-07T09:02:26;24.07;;;16.50;;
3068;SDS011;1545;51.728;8.796;2023-05-07T09:04:51;27.10;;;17.07;;
3068;SDS011;1545;51.728;8.796;2023-05-07T09:07:18;26.73;;;18.17;;
3068;SDS011;1545;51.728;8.796;2023-05-07T09:09:44;26.03;;;16.80;;
3068;SDS011;1545;51.728;8.796;2023-05-07T09:12:11;26.47;;;17.30;;
3068;SDS011;1545;51.728;8.796;2023-05-07T09:14:36;23.17;;;15.53;;
3068;SDS011;1545;51.728;8.796;2023-05-07T09:17:02;24.27;;;16.60;;
3068;SDS011;1545;51.728;8.796;2023-05-07T09:19:28;25.97;;;16.43;;
3068;SDS011;1545;51.728;8.796;2023-05-07T09:22:03;27.70;;;15.93;;
3068;SDS011;1545;51.728;8.796;2023-05-07T09:24:30;26.10;;;16.53;;
3068;SDS011;1545;51.728;8.796;2023-05-07T09:27:00;22.40;;;15.00;;
3068;SDS011;1545;51.728;8.796;2023-05-07T09:29:26;25.30;;;16.13;;
3068;SDS011;1545;51.728;8.796;2023-05-07T09:31:54;24.60;;;16.67;;
3068;SDS011;1545;51.728;8.796;2023-05-07T09:34:19;25.23;;;16.60;;
3068;SDS011;1545;51.728;8.796;2023-05-07T09:36:45;24.20;;;15.70;;
3068;SDS011;1545;51.728;8.796;2023-05-07T09:39:11;25.87;;;15.50;;
3068;SDS011;1545;51.728;8.796;2023-05-07T09:41:44;25.30;;;15.83;;
3068;SDS011;1545;51.728;8.796;2023-05-07T09:44:14;22.40;;;15.17;;
3068;SDS011;1545;51.728;8.796;2023-05-07T09:46:41;23.20;;;15.97;;
3068;SDS011;1545;51.728;8.796;2023-05-07T09:49:09;24.10;;;15.83;;
3068;SDS011;1545;51.728;8.796;2023-05-07T09:51:45;24.83;;;16.40;;
3068;SDS011;1545;51.728;8.796;2023-05-07T09:54:14;26.73;;;15.53;;
3068;SDS011;1545;51.728;8.796;2023-05-07T09:56:40;25.33;;;15.07;;
3068;SDS011;1545;51.728;8.796;2023-05-07T09:59:06;21.07;;;14.67;;
3068;SDS011;1545;51.728;8.796;2023-05-07T10:01:33;23.40;;;15.10;;
3068;SDS011;1545;51.728;8.796;2023-05-07T10:04:02;21.53;;;14.80;;
3068;SDS011;1545;51.728;8.796;2023-05-07T10:06:31;22.90;;;14.63;;
3068;SDS011;1545;51.728;8.796;2023-05-07T10:08:57;24.27;;;15.20;;
3068;SDS011;1545;51.728;8.796;2023-05-07T10:11:23;21.23;;;14.07;;
3068;SDS011;1545;51.728;8.796;2023-05-07T10:13:49;22.27;;;14.67;;
3068;SDS011;1545;51.728;8.796;2023-05-07T10:16:17;23.30;;;14.67;;
3068;SDS011;1545;51.728;8.796;2023-05-07T10:18:43;25.20;;;15.10;;
3068;SDS011;1545;51.728;8.796;2023-05-07T10:21:19;19.27;;;14.07;;
3068;SDS011;1545;51.728;8.796;2023-05-07T10:23:48;22.53;;;14.90;;
3068;SDS011;1545;51.728;8.796;2023-05-07T10:26:16;19.37;;;14.17;;
3068;SDS011;1545;51.728;8.796;2023-05-07T10:28:46;24.37;;;14.10;;
3068;SDS011;1545;51.728;8.796;2023-05-07T10:31:23;21.67;;;15.03;;
3068;SDS011;1545;51.728;8.796;2023-05-07T10:34:11;25.87;;;15.53;;
3068;SDS011;1545;51.728;8.796;2023-05-07T10:36:41;22.00;;;14.80;;
3068;SDS011;1545;51.728;8.796;2023-05-07T10:39:07;21.10;;;14.43;;
3068;SDS011;1545;51.728;8.796;2023-05-07T10:41:33;26.23;;;14.93;;
3068;SDS011;1545;51.728;8.796;2023-05-07T10:43:59;22.03;;;13.60;;
3068;SDS011;1545;51.728;8.796;2023-05-07T10:46:27;25.33;;;14.40;;
3068;SDS011;1545;51.728;8.796;2023-05-07T10:51:28;22.43;;;14.10;;
3068;SDS011;1545;51.728;8.796;2023-05-07T10:54:40;20.70;;;13.90;;
3068;SDS011;1545;51.728;8.796;2023-05-07T10:56:44;28.37;;;13.63;;
3068;SDS011;1545;51.728;8.796;2023-05-07T11:04:22;20.30;;;13.73;;
3068;SDS011;1545;51.728;8.796;2023-05-07T11:15:05;25.27;;;13.27;;
3068;SDS011;1545;51.728;8.796;2023-05-07T11:17:56;17.37;;;12.40;;
3068;SDS011;1545;51.728;8.796;2023-05-07T11:26:05;15.53;;;11.43;;
3068;SDS011;1545;51.728;8.796;2023-05-07T11:28:38;16.53;;;12.17;;
3068;SDS011;1545;51.728;8.796;2023-05-07T11:31:04;19.87;;;11.67;;
3068;SDS011;1545;51.728;8.796;2023-05-07T11:33:30;17.30;;;11.70;;
3068;SDS011;1545;51.728;8.796;2023-05-07T11:35:57;14.90;;;10.77;;
3068;SDS011;1545;51.728;8.796;2023-05-07T11:38:23;15.20;;;11.37;;
3068;SDS011;1545;51.728;8.796;2023-05-07T11:40:53;15.17;;;10.90;;
3068;SDS011;1545;51.728;8.796;2023-05-07T11:43:23;16.53;;;11.53;;
3068;SDS011;1545;51.728;8.796;2023-05-07T11:45:49;15.13;;;11.00;;
3068;SDS011;1545;51.728;8.796;2023-05-07T11:48:15;17.17;;;10.57;;
3068;SDS011;1545;51.728;8.796;2023-05-07T11:50:51;14.83;;;10.73;;
3068;SDS011;1545;51.728;8.796;2023-05-07T11:53:19;15.67;;;11.10;;
3068;SDS011;1545;51.728;8.796;2023-05-07T11:55:51;16.20;;;10.37;;
3068;SDS011;1545;51.728;8.796;2023-05-07T11:58:20;16.23;;;11.17;;
3068;SDS011;1545;51.728;8.796;2023-05-07T12:00:53;17.93;;;10.87;;
3068;SDS011;1545;51.728;8.796;2023-05-07T12:03:19;14.60;;;10.63;;
3068;SDS011;1545;51.728;8.796;2023-05-07T12:05:45;16.13;;;10.67;;
3068;SDS011;1545;51.728;8.796;2023-05-07T12:08:14;16.37;;;9.97;;
3068;SDS011;1545;51.728;8.796;2023-05-07T12:10:41;14.43;;;10.00;;
3068;SDS011;1545;51.728;8.796;2023-05-07T12:13:14;13.70;;;10.47;;
3068;SDS011;1545;51.728;8.796;2023-05-07T12:15:43;14.47;;;10.10;;
3068;SDS011;1545;51.728;8.796;2023-05-07T12:18:09;16.03;;;10.07;;
3068;SDS011;1545;51.728;8.796;2023-05-07T12:20:36;12.63;;;9.93;;
3068;SDS011;1545;51.728;8.796;2023-05-07T12:23:02;12.60;;;9.40;;
3068;SDS011;1545;51.728;8.796;2023-05-07T12:25:34;16.23;;;9.47;;
3068;SDS011;1545;51.728;8.796;2023-05-07T12:28:04;13.20;;;10.10;;
3068;SDS011;1545;51.728;8.796;2023-05-07T12:30:40;13.43;;;9.30;;
3068;SDS011;1545;51.728;8.796;2023-05-07T12:33:06;14.03;;;9.50;;
3068;SDS011;1545;51.728;8.796;2023-05-07T12:35:35;13.07;;;9.17;;
3068;SDS011;1545;51.728;8.796;2023-05-07T12:38:06;14.23;;;10.33;;
3068;SDS011;1545;51.728;8.796;2023-05-07T12:40:36;14.10;;;9.70;;
3068;SDS011;1545;51.728;8.796;2023-05-07T12:43:03;12.67;;;8.97;;
3068;SDS011;1545;51.728;8.796;2023-05-07T12:45:29;17.13;;;10.07;;
3068;SDS011;1545;51.728;8.796;2023-05-07T12:47:54;13.43;;;9.53;;
3068;SDS011;1545;51.728;8.796;2023-05-07T12:50:21;13.80;;;9.10;;
3068;SDS011;1545;51.728;8.796;2023-05-07T12:52:49;14.70;;;10.43;;
3068;SDS011;1545;51.728;8.796;2023-05-07T12:55:15;13.03;;;9.57;;
3068;SDS011;1545;51.728;8.796;2023-05-07T12:57:42;13.83;;;10.03;;
3068;SDS011;1545;51.728;8.796;2023-05-07T13:00:10;15.00;;;10.03;;
3068;SDS011;1545;51.728;8.796;2023-05-07T13:02:37;17.60;;;10.53;;
3068;SDS011;1545;51.728;8.796;2023-05-07T13:05:03;14.97;;;10.47;;
3068;SDS011;1545;51.728;8.796;2023-05-07T13:07:29;16.60;;;10.80;;
3068;SDS011;1545;51.728;8.796;2023-05-07T13:09:55;16.53;;;11.47;;
3068;SDS011;1545;51.728;8.796;2023-05-07T13:12:20;14.57;;;11.30;;
3068;SDS011;1545;51.728;8.796;2023-05-07T13:14:46;19.90;;;12.33;;
3068;SDS011;1545;51.728;8.796;2023-05-07T13:17:11;15.87;;;11.63;;
3068;SDS011;1545;51.728;8.796;2023-05-07T13:19:37;21.97;;;13.07;;
3068;SDS011;1545;51.728;8.796;2023-05-07T13:22:03;17.03;;;12.73;;
3068;SDS011;1545;51.728;8.796;2023-05-07T13:24:28;19.77;;;13.50;;
3068;SDS011;1545;51.728;8.796;2023-05-07T13:26:54;22.03;;;13.37;;
3068;SDS011;1545;51.728;8.796;2023-05-07T13:29:19;20.97;;;14.50;;
3068;SDS011;1545;51.728;8.796;2023-05-07T13:31:50;19.73;;;14.40;;
3068;SDS011;1545;51.728;8.796;2023-05-07T13:34:15;21.93;;;15.37;;
3068;SDS011;1545;51.728;8.796;2023-05-07T13:36:41;20.90;;;15.00;;
3068;SDS011;1545;51.728;8.796;2023-05-07T13:39:06;21.67;;;14.77;;
3068;SDS011;1545;51.728;8.796;2023-05-07T13:41:32;21.87;;;14.57;;
3068;SDS011;1545;51.728;8.796;2023-05-07T13:43:57;24.03;;;16.13;;
3068;SDS011;1545;51.728;8.796;2023-05-07T13:46:23;26.80;;;16.73;;
3068;SDS011;1545;51.728;8.796;2023-05-07T13:48:48;24.43;;;16.10;;
3068;SDS011;1545;51.728;8.796;2023-05-07T13:51:15;22.77;;;15.50;;
3068;SDS011;1545;51.728;8.796;2023-05-07T13:53:41;22.33;;;16.17;;
3068;SDS011;1545;51.728;8.796;2023-05-07T13:56:07;25.77;;;18.00;;
3068;SDS011;1545;51.728;8.796;2023-05-07T13:58:32;25.27;;;17.53;;
3068;SDS011;1545;51.728;8.796;2023-05-07T14:00:58;24.27;;;17.23;;
3068;SDS011;1545;51.728;8.796;2023-05-07T14:03:23;30.57;;;17.17;;
3068;SDS011;1545;51.728;8.796;2023-05-07T14:05:49;26.87;;;19.13;;
3068;SDS011;1545;51.728;8.796;2023-05-07T14:08:14;27.30;;;18.77;;
3068;SDS011;1545;51.728;8.796;2023-05-07T14:10:40;26.87;;;18.47;;
3068;SDS011;1545;51.728;8.796;2023-05-07T14:13:06;32.73;;;19.43;;
3068;SDS011;1545;51.728;8.796;2023-05-07T14:15:31;26.80;;;18.60;;
3068;SDS011;1545;51.728;8.796;2023-05-07T14:17:59;27.10;;;18.77;;
3068;SDS011;1545;51.728;8.796;2023-05-07T14:20:25;27.13;;;18.20;;
3068;SDS011;1545;51.728;8.796;2023-05-07T14:22:50;27.27;;;18.90;;
3068;SDS011;1545;51.728;8.796;2023-05-07T14:25:16;26.30;;;17.60;;
3068;SDS011;1545;51.728;8.796;2023-05-07T14:27:42;25.90;;;18.73;;
3068;SDS011;1545;51.728;8.796;2023-05-07T14:30:08;24.60;;;17.87;;
3068;SDS011;1545;51.728;8.796;2023-05-07T14:32:34;28.20;;;18.20;;
3068;SDS011;1545;51.728;8.796;2023-05-07T14:35:00;29.20;;;18.60;;
3068;SDS011;1545;51.728;8.796;2023-05-07T14:37:26;26.37;;;18.53;;
3068;SDS011;1545;51.728;8.796;2023-05-07T14:39:51;25.33;;;19.37;;
3068;SDS011;1545;51.728;8.796;2023-05-07T14:42:17;29.47;;;18.67;;
3068;SDS011;1545;51.728;8.796;2023-05-07T14:44:42;28.20;;;19.57;;
3068;SDS011;1545;51.728;8.796;2023-05-07T14:47:10;26.07;;;19.27;;
3068;SDS011;1545;51.728;8.796;2023-05-07T14:49:35;31.50;;;19.30;;
3068;SDS011;1545;51.728;8.796;2023-05-07T14:52:01;28.50;;;19.63;;
3068;SDS011;1545;51.728;8.796;2023-05-07T14:54:27;26.57;;;19.10;;
3068;SDS011;1545;51.728;8.796;2023-05-07T14:56:52;34.57;;;20.27;;
3068;SDS011;1545;51.728;8.796;2023-05-07T14:59:18;28.43;;;19.47;;
3068;SDS011;1545;51.728;8.796;2023-05-07T15:01:46;28.97;;;20.07;;
3068;SDS011;1545;51.728;8.796;2023-05-07T15:04:12;28.30;;;20.03;;
3068;SDS011;1545;51.728;8.796;2023-05-07T15:06:37;35.67;;;21.60;;